sensor_id;sensor_type;location;lat;lon;timestamp;pressure;altitude;pressure_sealevel;temperature;humidity
14120;BME280;7138;49.246;9.100;2023-02-03T00:02:24;99951.47;;;7.42;100.00
14120;BME280;7138;49.246;9.100;2023-02-03T00:04:49;99943.94;;;7.48;100.00
14120;BME280;7138;49.246;9.100;2023-02-03T00:07:17;99936.09;;;7.44;100.00
14120;BME280;7138;49.246;9.100;2023-02-03T00:09:43;99943.75;;;7.42;100.00
14120;BME280;7138;49.246;9.100;2023-02-03T00:12:09;99945.25;;;7.36;100.00
14120;BME280;7138;49.246;9.100;2023-02-03T00:14:35;99946.03;;;7.33;100.00
14120;BME280;7138;49.246;9.100;2023-02-03T00:17:02;99948.50;;;7.30;100.00
14120;BME280;7138;49.246;9.100;2023-02-03T00:19:28;99952.06;;;7.34;100.00
14120;BME280;7138;49.246;9.100;2023-02-03T00:21:54;99954.78;;;7.38;100.00
14120;BME280;7138;49.246;9.100;2023-02-03T00:24:22;99959.78;;;7.34;100.00
14120;BME280;7138;49.246;9.100;2023-02-03T00:26:48;99949.75;;;7.41;100.00
14120;BME280;7138;49.246;9.100;2023-02-03T00:29:14;99956.44;;;7.36;100.00
14120;BME280;7138;49.246;9.100;2023-02-03T00:31:40;99943.91;;;7.47;100.00
14120;BME280;7138;49.246;9.100;2023-02-03T00:34:06;99938.59;;;7.42;100.00
14120;BME280;7138;49.246;9.100;2023-02-03T00:36:32;99928.50;;;7.48;100.00
14120;BME280;7138;49.246;9.100;2023-02-03T00:39:00;99926.00;;;7.50;100.00
14120;BME280;7138;49.246;9.100;2023-02-03T00:41:29;99934.44;;;7.46;100.00
14120;BME280;7138;49.246;9.100;2023-02-03T00:43:56;99942.22;;;7.47;100.00
14120;BME280;7138;49.246;9.100;2023-02-03T00:46:22;99945.75;;;7.51;100.00
14120;BME280;7138;49.246;9.100;2023-02-03T00:48:47;99947.28;;;7.44;100.00
14120;BME280;7138;49.246;9.100;2023-02-03T00:51:13;99946.59;;;7.50;100.00
14120;BME280;7138;49.246;9.100;2023-02-03T00:53:39;99926.63;;;7.43;100.00
14120;BME280;7138;49.246;9.100;2023-02-03T00:59:48;99917.75;;;7.33;100.00
14120;BME280;7138;49.246;9.100;2023-02-03T01:02:14;99918.69;;;7.35;100.00
14120;BME280;7138;49.246;9.100;2023-02-03T01:04:41;99920.41;;;7.36;100.00
14120;BME280;7138;49.246;9.100;2023-02-03T01:07:07;99920.06;;;7.52;100.00
14120;BME280;7138;49.246;9.100;2023-02-03T01:09:34;99923.44;;;7.50;100.00
14120;BME280;7138;49.246;9.100;2023-02-03T01:12:00;99919.63;;;7.39;100.00
14120;BME280;7138;49.246;9.100;2023-02-03T01:14:26;99918.91;;;7.43;100.00
14120;BME280;7138;49.246;9.100;2023-02-03T01:16:53;99916.94;;;7.34;100.00
14120;BME280;7138;49.246;9.100;2023-02-03T01:19:19;99914.63;;;7.43;100.00
14120;BME280;7138;49.246;9.100;2023-02-03T01:21:46;99928.28;;;7.41;100.00
14120;BME280;7138;49.246;9.100;2023-02-03T01:24:12;99924.94;;;7.43;100.00
14120;BME280;7138;49.246;9.100;2023-02-03T01:26:40;99927.41;;;7.40;100.00
14120;BME280;7138;49.246;9.100;2023-02-03T01:29:07;99929.16;;;7.41;100.00
14120;BME280;7138;49.246;9.100;2023-02-03T01:31:36;99930.97;;;7.44;100.00
14120;BME280;7138;49.246;9.100;2023-02-03T01:34:07;99919.19;;;7.52;100.00
14120;BME280;7138;49.246;9.100;2023-02-03T01:36:35;99925.50;;;7.61;100.00
14120;BME280;7138;49.246;9.100;2023-02-03T01:39:02;99932.97;;;7.54;100.00
14120;BME280;7138;49.246;9.100;2023-02-03T01:41:31;99933.84;;;7.54;100.00
14120;BME280;7138;49.246;9.100;2023-02-03T01:44:00;99917.50;;;7.52;100.00
14120;BME280;7138;49.246;9.100;2023-02-03T01:46:30;99914.03;;;7.52;100.00
14120;BME280;7138;49.246;9.100;2023-02-03T01:49:08;99903.66;;;7.49;100.00
14120;BME280;7138;49.246;9.100;2023-02-03T01:51:39;99903.72;;;7.50;100.00
14120;BME280;7138;49.246;9.100;2023-02-03T01:54:11;99902.25;;;7.58;100.00
14120;BME280;7138;49.246;9.100;2023-02-03T01:56:44;99875.78;;;7.62;100.00
14120;BME280;7138;49.246;9.100;2023-02-03T01:59:15;99872.59;;;7.71;100.00
14120;BME280;7138;49.246;9.100;2023-02-03T02:01:43;99877.88;;;7.76;100.00
14120;BME280;7138;49.246;9.100;2023-02-03T02:04:11;99879.44;;;7.70;100.00
14120;BME280;7138;49.246;9.100;2023-02-03T02:06:37;99892.94;;;7.63;100.00
14120;BME280;7138;49.246;9.100;2023-02-03T02:09:03;99879.47;;;7.72;100.00
14120;BME280;7138;49.246;9.100;2023-02-03T02:11:29;99850.97;;;7.64;100.00
14120;BME280;7138;49.246;9.100;2023-02-03T02:14:00;99828.66;;;7.65;100.00
14120;BME280;7138;49.246;9.100;2023-02-03T02:16:40;99790.88;;;7.64;100.00
14120;BME280;7138;49.246;9.100;2023-02-03T02:19:57;99799.78;;;7.45;100.00
14120;BME280;7138;49.246;9.100;2023-02-03T02:22:46;99824.06;;;7.27;100.00
14120;BME280;7138;49.246;9.100;2023-02-03T02:28:48;99848.00;;;7.24;100.00
14120;BME280;7138;49.246;9.100;2023-02-03T02:31:59;99832.53;;;7.23;100.00
14120;BME280;7138;49.246;9.100;2023-02-03T02:34:45;99828.19;;;7.20;100.00
14120;BME280;7138;49.246;9.100;2023-02-03T02:37:25;99833.69;;;7.05;100.00
14120;BME280;7138;49.246;9.100;2023-02-03T02:40:02;99834.53;;;7.04;100.00
14120;BME280;7138;49.246;9.100;2023-02-03T02:42:37;99837.03;;;7.03;100.00
14120;BME280;7138;49.246;9.100;2023-02-03T02:45:13;99841.56;;;7.10;100.00
14120;BME280;7138;49.246;9.100;2023-02-03T02:47:42;99832.06;;;7.07;100.00
14120;BME280;7138;49.246;9.100;2023-02-03T02:50:17;99813.97;;;7.04;100.00
14120;BME280;7138;49.246;9.100;2023-02-03T02:52:48;99834.72;;;7.10;100.00
14120;BME280;7138;49.246;9.100;2023-02-03T02:55:22;99830.41;;;7.09;100.00
14120;BME280;7138;49.246;9.100;2023-02-03T02:57:57;99825.59;;;7.20;100.00
14120;BME280;7138;49.246;9.100;2023-02-03T03:00:29;99806.81;;;7.23;100.00
14120;BME280;7138;49.246;9.100;2023-02-03T03:02:56;99812.94;;;7.26;100.00
14120;BME280;7138;49.246;9.100;2023-02-03T03:05:24;99815.34;;;7.22;100.00
14120;BME280;7138;49.246;9.100;2023-02-03T03:07:57;99829.09;;;7.22;100.00
14120;BME280;7138;49.246;9.100;2023-02-03T03:10:30;99838.66;;;7.26;100.00
14120;BME280;7138;49.246;9.100;2023-02-03T03:13:05;99832.66;;;7.27;100.00
14120;BME280;7138;49.246;9.100;2023-02-03T03:15:34;99829.13;;;7.24;100.00
14120;BME280;7138;49.246;9.100;2023-02-03T03:18:09;99839.91;;;7.12;100.00
14120;BME280;7138;49.246;9.100;2023-02-03T03:20:40;99850.84;;;7.05;100.00
14120;BME280;7138;49.246;9.100;2023-02-03T03:23:15;99839.72;;;7.06;100.00
14120;BME280;7138;49.246;9.100;2023-02-03T03:25:48;99856.91;;;7.07;100.00
14120;BME280;7138;49.246;9.100;2023-02-03T03:28:24;99852.72;;;7.10;100.00
14120;BME280;7138;49.246;9.100;2023-02-03T03:30:52;99866.22;;;7.03;100.00
14120;BME280;7138;49.246;9.100;2023-02-03T03:33:21;99873.88;;;7.02;100.00
14120;BME280;7138;49.246;9.100;2023-02-03T03:35:54;99879.22;;;7.08;100.00
14120;BME280;7138;49.246;9.100;2023-02-03T03:38:29;99880.94;;;7.09;100.00
14120;BME280;7138;49.246;9.100;2023-02-03T03:41:04;99874.84;;;7.05;100.00
14120;BME280;7138;49.246;9.100;2023-02-03T03:43:37;99889.41;;;7.05;100.00
14120;BME280;7138;49.246;9.100;2023-02-03T03:46:12;99880.03;;;7.07;100.00
14120;BME280;7138;49.246;9.100;2023-02-03T03:48:49;99887.28;;;6.93;100.00
14120;BME280;7138;49.246;9.100;2023-02-03T03:51:21;99871.88;;;6.93;100.00
14120;BME280;7138;49.246;9.100;2023-02-03T03:53:52;99874.34;;;6.90;100.00
14120;BME280;7138;49.246;9.100;2023-02-03T03:56:24;99881.50;;;6.99;100.00
14120;BME280;7138;49.246;9.100;2023-02-03T03:58:53;99873.88;;;7.02;100.00
14120;BME280;7138;49.246;9.100;2023-02-03T04:01:22;99877.28;;;7.01;100.00
14120;BME280;7138;49.246;9.100;2023-02-03T04:03:55;99873.97;;;7.05;100.00
14120;BME280;7138;49.246;9.100;2023-02-03T04:06:22;99867.09;;;7.04;100.00
14120;BME280;7138;49.246;9.100;2023-02-03T04:08:48;99870.66;;;7.09;100.00
14120;BME280;7138;49.246;9.100;2023-02-03T04:11:14;99865.44;;;7.06;100.00
14120;BME280;7138;49.246;9.100;2023-02-03T04:13:59;99860.47;;;7.12;100.00
14120;BME280;7138;49.246;9.100;2023-02-03T04:16:25;99868.34;;;7.17;100.00
14120;BME280;7138;49.246;9.100;2023-02-03T04:18:52;99863.00;;;7.10;100.00
14120;BME280;7138;49.246;9.100;2023-02-03T04:21:18;99860.53;;;7.13;100.00
14120;BME280;7138;49.246;9.100;2023-02-03T04:23:44;99861.34;;;7.12;100.00
14120;BME280;7138;49.246;9.100;2023-02-03T04:26:10;99864.22;;;7.22;100.00
14120;BME280;7138;49.246;9.100;2023-02-03T04:28:36;99866.66;;;7.17;100.00
14120;BME280;7138;49.246;9.100;2023-02-03T04:31:02;99860.75;;;7.21;100.00
14120;BME280;7138;49.246;9.100;2023-02-03T04:33:28;99850.19;;;7.12;100.00
14120;BME280;7138;49.246;9.100;2023-02-03T04:35:55;99843.22;;;7.08;100.00
14120;BME280;7138;49.246;9.100;2023-02-03T04:38:21;99865.28;;;7.01;100.00
14120;BME280;7138;49.246;9.100;2023-02-03T04:40:47;99850.84;;;7.05;100.00
14120;BME280;7138;49.246;9.100;2023-02-03T04:43:12;99841.47;;;7.07;100.00
14120;BME280;7138;49.246;9.100;2023-02-03T04:45:39;99853.25;;;7.00;100.00
14120;BME280;7138;49.246;9.100;2023-02-03T04:48:05;99856.09;;;7.08;100.00
14120;BME280;7138;49.246;9.100;2023-02-03T04:50:31;99867.00;;;7.01;100.00
14120;BME280;7138;49.246;9.100;2023-02-03T04:52:58;99873.03;;;7.03;100.00
14120;BME280;7138;49.246;9.100;2023-02-03T04:55:25;99873.72;;;6.97;100.00
14120;BME280;7138;49.246;9.100;2023-02-03T04:57:54;99872.13;;;7.01;100.00
14120;BME280;7138;49.246;9.100;2023-02-03T05:00:20;99879.69;;;6.96;100.00
14120;BME280;7138;49.246;9.100;2023-02-03T05:02:46;99874.41;;;6.92;100.00
14120;BME280;7138;49.246;9.100;2023-02-03T05:05:12;99867.59;;;6.94;100.00
14120;BME280;7138;49.246;9.100;2023-02-03T05:07:38;99860.78;;;6.94;100.00
14120;BME280;7138;49.246;9.100;2023-02-03T05:10:06;99861.44;;;6.89;100.00
14120;BME280;7138;49.246;9.100;2023-02-03T05:12:32;99845.06;;;6.85;100.00
14120;BME280;7138;49.246;9.100;2023-02-03T05:14:58;99829.53;;;6.82;100.00
14120;BME280;7138;49.246;9.100;2023-02-03T05:17:24;99843.28;;;6.84;100.00
14120;BME280;7138;49.246;9.100;2023-02-03T05:19:49;99847.63;;;6.85;100.00
14120;BME280;7138;49.246;9.100;2023-02-03T05:22:15;99864.84;;;6.88;100.00
14120;BME280;7138;49.246;9.100;2023-02-03T05:24:41;99856.88;;;6.80;100.00
14120;BME280;7138;49.246;9.100;2023-02-03T05:27:08;99850.09;;;6.82;100.00
14120;BME280;7138;49.246;9.100;2023-02-03T05:29:34;99843.38;;;6.87;100.00
14120;BME280;7138;49.246;9.100;2023-02-03T05:32:00;99837.59;;;6.93;100.00
14120;BME280;7138;49.246;9.100;2023-02-03T05:34:26;99828.66;;;6.82;100.00
14120;BME280;7138;49.246;9.100;2023-02-03T05:36:52;99833.88;;;6.85;100.00
14120;BME280;7138;49.246;9.100;2023-02-03T05:39:18;99832.09;;;6.82;100.00
14120;BME280;7138;49.246;9.100;2023-02-03T05:41:44;99834.09;;;6.91;100.00
14120;BME280;7138;49.246;9.100;2023-02-03T05:44:22;99834.78;;;6.85;100.00
14120;BME280;7138;49.246;9.100;2023-02-03T05:46:51;99846.59;;;6.80;100.00
14120;BME280;7138;49.246;9.100;2023-02-03T05:49:17;99857.88;;;6.84;100.00
14120;BME280;7138;49.246;9.100;2023-02-03T05:51:45;99869.69;;;6.79;100.00
14120;BME280;7138;49.246;9.100;2023-02-03T05:54:11;99858.88;;;6.89;100.00
14120;BME280;7138;49.246;9.100;2023-02-03T05:56:37;99840.00;;;6.88;100.00
14120;BME280;7138;49.246;9.100;2023-02-03T05:59:04;99848.44;;;6.84;100.00
14120;BME280;7138;49.246;9.100;2023-02-03T06:01:32;99844.25;;;6.86;100.00
14120;BME280;7138;49.246;9.100;2023-02-03T06:03:59;99829.69;;;6.87;100.00
14120;BME280;7138;49.246;9.100;2023-02-03T06:06:25;99826.19;;;6.85;100.00
14120;BME280;7138;49.246;9.100;2023-02-03T06:08:57;99828.94;;;6.91;100.00
14120;BME280;7138;49.246;9.100;2023-02-03T06:11:23;99814.22;;;6.85;100.00
14120;BME280;7138;49.246;9.100;2023-02-03T06:13:50;99813.63;;;6.94;100.00
14120;BME280;7138;49.246;9.100;2023-02-03T06:16:16;99801.41;;;6.87;100.00
14120;BME280;7138;49.246;9.100;2023-02-03T06:18:46;99797.13;;;6.87;100.00
14120;BME280;7138;49.246;9.100;2023-02-03T06:21:12;99799.47;;;6.80;100.00
14120;BME280;7138;49.246;9.100;2023-02-03T06:23:38;99794.22;;;6.77;100.00
14120;BME280;7138;49.246;9.100;2023-02-03T06:26:04;99795.78;;;6.72;100.00
14120;BME280;7138;49.246;9.100;2023-02-03T06:28:30;99799.75;;;6.62;100.00
14120;BME280;7138;49.246;9.100;2023-02-03T06:30:58;99791.97;;;6.60;100.00
14120;BME280;7138;49.246;9.100;2023-02-03T06:33:24;99804.13;;;6.65;100.00
14120;BME280;7138;49.246;9.100;2023-02-03T06:35:52;99787.91;;;6.67;100.00
14120;BME280;7138;49.246;9.100;2023-02-03T06:38:19;99792.56;;;6.79;100.00
14120;BME280;7138;49.246;9.100;2023-02-03T06:40:45;99802.75;;;6.76;100.00
14120;BME280;7138;49.246;9.100;2023-02-03T06:43:11;99809.78;;;6.81;100.00
14120;BME280;7138;49.246;9.100;2023-02-03T06:45:37;99799.56;;;6.83;100.00
14120;BME280;7138;49.246;9.100;2023-02-03T06:48:03;99792.66;;;6.82;100.00
14120;BME280;7138;49.246;9.100;2023-02-03T06:50:29;99788.28;;;6.78;100.00
14120;BME280;7138;49.246;9.100;2023-02-03T06:52:56;99797.63;;;6.76;100.00
14120;BME280;7138;49.246;9.100;2023-02-03T06:55:23;99800.47;;;6.85;100.00
14120;BME280;7138;49.246;9.100;2023-02-03T06:57:49;99797.19;;;6.89;100.00
14120;BME280;7138;49.246;9.100;2023-02-03T07:00:18;99806.66;;;6.90;100.00
14120;BME280;7138;49.246;9.100;2023-02-03T07:02:44;99805.69;;;6.86;100.00
14120;BME280;7138;49.246;9.100;2023-02-03T07:05:10;99801.22;;;6.81;100.00
14120;BME280;7138;49.246;9.100;2023-02-03T07:07:36;99801.88;;;6.75;100.00
14120;BME280;7138;49.246;9.100;2023-02-03T07:10:06;99806.47;;;6.84;100.00
14120;BME280;7138;49.246;9.100;2023-02-03T07:12:32;99817.66;;;6.86;100.00
14120;BME280;7138;49.246;9.100;2023-02-03T07:14:58;99821.31;;;6.94;100.00
14120;BME280;7138;49.246;9.100;2023-02-03T07:17:24;99830.81;;;6.95;100.00
14120;BME280;7138;49.246;9.100;2023-02-03T07:19:49;99837.50;;;6.90;100.00
14120;BME280;7138;49.246;9.100;2023-02-03T07:22:15;99851.31;;;6.93;100.00
14120;BME280;7138;49.246;9.100;2023-02-03T07:24:41;99855.31;;;6.84;100.00
14120;BME280;7138;49.246;9.100;2023-02-03T07:27:08;99856.22;;;6.86;100.00
14120;BME280;7138;49.246;9.100;2023-02-03T07:29:34;99857.00;;;6.83;100.00
14120;BME280;7138;49.246;9.100;2023-02-03T07:32:00;99868.06;;;6.81;100.00
14120;BME280;7138;49.246;9.100;2023-02-03T07:34:27;99856.22;;;6.86;100.00
14120;BME280;7138;49.246;9.100;2023-02-03T07:36:53;99863.00;;;6.84;100.00
14120;BME280;7138;49.246;9.100;2023-02-03T07:39:19;99855.34;;;6.85;100.00
14120;BME280;7138;49.246;9.100;2023-02-03T07:41:44;99867.56;;;6.92;100.00
14120;BME280;7138;49.246;9.100;2023-02-03T07:44:12;99873.38;;;6.87;100.00
14120;BME280;7138;49.246;9.100;2023-02-03T07:46:38;99868.66;;;6.74;100.00
14120;BME280;7138;49.246;9.100;2023-02-03T07:49:09;99859.59;;;6.85;100.00
14120;BME280;7138;49.246;9.100;2023-02-03T07:51:35;99875.91;;;6.85;100.00
14120;BME280;7138;49.246;9.100;2023-02-03T07:54:01;99869.09;;;6.87;100.00
14120;BME280;7138;49.246;9.100;2023-02-03T07:56:26;99873.78;;;6.99;100.00
14120;BME280;7138;49.246;9.100;2023-02-03T07:58:53;99864.41;;;7.01;100.00
14120;BME280;7138;49.246;9.100;2023-02-03T08:01:20;99870.19;;;6.94;100.00
14120;BME280;7138;49.246;9.100;2023-02-03T08:03:46;99882.59;;;6.80;100.00
14120;BME280;7138;49.246;9.100;2023-02-03T08:06:12;99881.50;;;6.74;100.00
14120;BME280;7138;49.246;9.100;2023-02-03T08:08:38;99875.84;;;6.84;100.00
14120;BME280;7138;49.246;9.100;2023-02-03T08:11:05;99864.69;;;6.83;100.00
14120;BME280;7138;49.246;9.100;2023-02-03T08:13:31;99869.06;;;6.86;100.00
14120;BME280;7138;49.246;9.100;2023-02-03T08:15:57;99863.94;;;6.87;100.00
14120;BME280;7138;49.246;9.100;2023-02-03T08:18:24;99872.66;;;6.91;100.00
14120;BME280;7138;49.246;9.100;2023-02-03T08:20:50;99878.47;;;6.85;100.00
14120;BME280;7138;49.246;9.100;2023-02-03T08:23:16;99884.22;;;6.78;100.00
14120;BME280;7138;49.246;9.100;2023-02-03T08:25:42;99875.97;;;6.87;100.00
14120;BME280;7138;49.246;9.100;2023-02-03T08:28:08;99891.47;;;6.90;100.00
14120;BME280;7138;49.246;9.100;2023-02-03T08:30:34;99885.38;;;6.86;100.00
14120;BME280;7138;49.246;9.100;2023-02-03T08:33:00;99878.22;;;6.78;100.00
14120;BME280;7138;49.246;9.100;2023-02-03T08:35:27;99866.59;;;6.89;100.00
14120;BME280;7138;49.246;9.100;2023-02-03T08:37:53;99870.44;;;6.76;100.00
14120;BME280;7138;49.246;9.100;2023-02-03T08:40:20;99847.81;;;6.66;100.00
14120;BME280;7138;49.246;9.100;2023-02-03T08:42:46;99885.25;;;6.83;100.00
14120;BME280;7138;49.246;9.100;2023-02-03T08:45:12;99869.09;;;6.87;100.00
14120;BME280;7138;49.246;9.100;2023-02-03T08:47:38;99856.69;;;6.74;100.00
14120;BME280;7138;49.246;9.100;2023-02-03T08:50:06;99856.72;;;6.76;100.00
14120;BME280;7138;49.246;9.100;2023-02-03T08:52:34;99830.63;;;6.64;100.00
14120;BME280;7138;49.246;9.100;2023-02-03T08:55:00;99860.75;;;6.68;100.00
14120;BME280;7138;49.246;9.100;2023-02-03T08:57:26;99841.41;;;6.79;100.00
14120;BME280;7138;49.246;9.100;2023-02-03T08:59:52;99844.81;;;6.78;100.00
14120;BME280;7138;49.246;9.100;2023-02-03T09:02:19;99863.81;;;6.83;100.00
14120;BME280;7138;49.246;9.100;2023-02-03T09:04:45;99864.69;;;6.83;100.00
14120;BME280;7138;49.246;9.100;2023-02-03T09:07:12;99856.09;;;6.83;100.00
14120;BME280;7138;49.246;9.100;2023-02-03T09:09:39;99872.25;;;6.79;100.00
14120;BME280;7138;49.246;9.100;2023-02-03T09:12:05;99869.47;;;6.73;100.00
14120;BME280;7138;49.246;9.100;2023-02-03T09:14:32;99856.69;;;6.74;100.00
14120;BME280;7138;49.246;9.100;2023-02-03T09:16:59;99867.41;;;6.88;100.00
14120;BME280;7138;49.246;9.100;2023-02-03T09:19:25;99867.66;;;6.95;100.00
14120;BME280;7138;49.246;9.100;2023-02-03T09:21:51;99880.56;;;6.97;100.00
14120;BME280;7138;49.246;9.100;2023-02-03T09:24:17;99883.78;;;6.90;100.00
14120;BME280;7138;49.246;9.100;2023-02-03T09:26:44;99876.88;;;6.89;100.00
14120;BME280;7138;49.246;9.100;2023-02-03T09:29:10;99872.03;;;6.98;100.00
14120;BME280;7138;49.246;9.100;2023-02-03T09:31:36;99858.16;;;6.93;100.00
14120;BME280;7138;49.246;9.100;2023-02-03T09:34:02;99858.28;;;6.97;100.00
14120;BME280;7138;49.246;9.100;2023-02-03T09:36:28;99846.53;;;7.05;100.00
14120;BME280;7138;49.246;9.100;2023-02-03T09:38:55;99837.41;;;7.13;100.00
14120;BME280;7138;49.246;9.100;2023-02-03T09:41:50;99835.78;;;7.17;100.00
14120;BME280;7138;49.246;9.100;2023-02-03T09:44:29;99848.00;;;7.24;100.00
14120;BME280;7138;49.246;9.100;2023-02-03T09:47:03;99851.59;;;7.29;100.00
14120;BME280;7138;49.246;9.100;2023-02-03T09:49:38;99850.91;;;7.35;100.00
14120;BME280;7138;49.246;9.100;2023-02-03T09:52:13;99848.94;;;7.26;100.00
14120;BME280;7138;49.246;9.100;2023-02-03T09:54:51;99857.66;;;7.31;100.00
14120;BME280;7138;49.246;9.100;2023-02-03T09:57:22;99856.78;;;7.31;100.00
14120;BME280;7138;49.246;9.100;2023-02-03T09:59:49;99831.34;;;7.40;100.00
14120;BME280;7138;49.246;9.100;2023-02-03T10:02:42;99847.88;;;7.48;100.00
14120;BME280;7138;49.246;9.100;2023-02-03T10:05:19;99851.22;;;7.45;100.00
14120;BME280;7138;49.246;9.100;2023-02-03T10:08:00;99849.31;;;7.38;100.00
14120;BME280;7138;49.246;9.100;2023-02-03T10:10:38;99842.19;;;7.58;100.00
14120;BME280;7138;49.246;9.100;2023-02-03T10:13:33;99858.63;;;7.63;100.00
14120;BME280;7138;49.246;9.100;2023-02-03T10:16:22;99846.25;;;7.51;100.00
14120;BME280;7138;49.246;9.100;2023-02-03T10:18:54;99848.72;;;7.47;100.00
14120;BME280;7138;49.246;9.100;2023-02-03T10:21:34;99859.69;;;7.41;100.00
14120;BME280;7138;49.246;9.100;2023-02-03T10:24:03;99852.25;;;7.24;100.00
14120;BME280;7138;49.246;9.100;2023-02-03T10:26:31;99882.50;;;7.31;100.00
14120;BME280;7138;49.246;9.100;2023-02-03T10:29:07;99883.66;;;7.40;100.00
14120;BME280;7138;49.246;9.100;2023-02-03T10:31:37;99889.69;;;7.41;100.00
14120;BME280;7138;49.246;9.100;2023-02-03T10:34:10;99886.00;;;7.33;100.00
14120;BME280;7138;49.246;9.100;2023-02-03T10:36:54;99866.66;;;7.45;100.00
14120;BME280;7138;49.246;9.100;2023-02-03T10:39:32;99876.25;;;7.51;100.00
14120;BME280;7138;49.246;9.100;2023-02-03T10:42:03;99872.00;;;7.51;100.00
14120;BME280;7138;49.246;9.100;2023-02-03T10:44:37;99874.66;;;7.54;100.00
14120;BME280;7138;49.246;9.100;2023-02-03T10:47:22;99866.84;;;7.51;100.00
14120;BME280;7138;49.246;9.100;2023-02-03T10:49:51;99862.31;;;7.43;100.00
14120;BME280;7138;49.246;9.100;2023-02-03T10:52:28;99863.97;;;7.41;100.00
14120;BME280;7138;49.246;9.100;2023-02-03T10:54:54;99856.25;;;7.41;100.00
14120;BME280;7138;49.246;9.100;2023-02-03T10:57:21;99863.31;;;7.48;100.00
14120;BME280;7138;49.246;9.100;2023-02-03T10:59:49;99847.66;;;7.40;100.00
14120;BME280;7138;49.246;9.100;2023-02-03T11:02:23;99836.38;;;7.37;100.00
14120;BME280;7138;49.246;9.100;2023-02-03T11:05:16;99832.03;;;7.34;100.00
14120;BME280;7138;49.246;9.100;2023-02-03T11:07:43;99832.84;;;7.33;100.00
14120;BME280;7138;49.246;9.100;2023-02-03T11:10:31;99841.59;;;7.38;100.00
14120;BME280;7138;49.246;9.100;2023-02-03T11:13:19;99825.19;;;7.35;100.00
14120;BME280;7138;49.246;9.100;2023-02-03T11:15:55;99830.84;;;7.23;100.00
14120;BME280;7138;49.246;9.100;2023-02-03T11:18:51;99830.88;;;7.25;100.00
14120;BME280;7138;49.246;9.100;2023-02-03T11:21:21;99810.72;;;7.10;100.00
14120;BME280;7138;49.246;9.100;2023-02-03T11:23:53;99801.84;;;7.29;100.00
14120;BME280;7138;49.246;9.100;2023-02-03T11:26:24;99793.91;;;7.21;100.00
14120;BME280;7138;49.246;9.100;2023-02-03T11:28:56;99792.09;;;7.19;100.00
14120;BME280;7138;49.246;9.100;2023-02-03T11:31:27;99796.81;;;7.32;100.00
14120;BME280;7138;49.246;9.100;2023-02-03T11:33:57;99799.50;;;7.36;100.00
14120;BME280;7138;49.246;9.100;2023-02-03T11:36:27;99780.66;;;7.37;100.00
14120;BME280;7138;49.246;9.100;2023-02-03T11:39:13;99787.41;;;7.34;100.00
14120;BME280;7138;49.246;9.100;2023-02-03T11:41:40;99777.22;;;7.37;100.00
14120;BME280;7138;49.246;9.100;2023-02-03T11:44:14;99784.06;;;7.36;100.00
14120;BME280;7138;49.246;9.100;2023-02-03T11:46:43;99789.47;;;7.45;100.00
14120;BME280;7138;49.246;9.100;2023-02-03T11:52:44;99794.59;;;7.44;100.00
14120;BME280;7138;49.246;9.100;2023-02-03T11:55:26;99809.53;;;7.57;100.00
14120;BME280;7138;49.246;9.100;2023-02-03T12:01:16;99800.78;;;7.50;100.00
14120;BME280;7138;49.246;9.100;2023-02-03T12:04:28;99793.06;;;7.50;100.00
14120;BME280;7138;49.246;9.100;2023-02-03T12:07:25;99778.56;;;7.54;100.00
14120;BME280;7138;49.246;9.100;2023-02-03T12:10:05;99775.06;;;7.50;100.00
14120;BME280;7138;49.246;9.100;2023-02-03T12:12:50;99765.63;;;7.51;100.00
14120;BME280;7138;49.246;9.100;2023-02-03T12:15:39;99757.06;;;7.52;100.00
14120;BME280;7138;49.246;9.100;2023-02-03T12:18:29;99742.69;;;7.58;100.00
14120;BME280;7138;49.246;9.100;2023-02-03T12:21:13;99740.03;;;7.55;100.00
14120;BME280;7138;49.246;9.100;2023-02-03T12:23:52;99737.72;;;7.64;100.00
14120;BME280;7138;49.246;9.100;2023-02-03T12:26:25;99727.28;;;7.60;100.00
14120;BME280;7138;49.246;9.100;2023-02-03T12:29:02;99722.28;;;7.66;100.00
14120;BME280;7138;49.246;9.100;2023-02-03T12:31:36;99723.47;;;7.77;100.00
14120;BME280;7138;49.246;9.100;2023-02-03T12:34:16;99709.56;;;7.70;100.00
14120;BME280;7138;49.246;9.100;2023-02-03T12:36:49;99717.69;;;7.86;100.00
14120;BME280;7138;49.246;9.100;2023-02-03T12:39:25;99724.38;;;7.79;100.00
14120;BME280;7138;49.246;9.100;2023-02-03T12:41:59;99718.19;;;7.72;100.00
14120;BME280;7138;49.246;9.100;2023-02-03T12:44:33;99719.13;;;7.75;100.00
14120;BME280;7138;49.246;9.100;2023-02-03T12:47:11;99726.75;;;7.72;100.00
14120;BME280;7138;49.246;9.100;2023-02-03T12:49:45;99740.13;;;7.60;100.00
14120;BME280;7138;49.246;9.100;2023-02-03T12:52:21;99735.31;;;7.70;100.00
14120;BME280;7138;49.246;9.100;2023-02-03T12:54:58;99717.59;;;7.81;100.00
14120;BME280;7138;49.246;9.100;2023-02-03T12:57:33;99712.28;;;7.75;100.00
14120;BME280;7138;49.246;9.100;2023-02-03T13:00:17;99696.84;;;7.77;100.00
14120;BME280;7138;49.246;9.100;2023-02-03T13:02:56;99699.94;;;7.63;100.00
14120;BME280;7138;49.246;9.100;2023-02-03T13:05:37;99693.97;;;7.64;100.00
14120;BME280;7138;49.246;9.100;2023-02-03T13:08:16;99676.81;;;7.65;100.00
14120;BME280;7138;49.246;9.100;2023-02-03T13:10:49;99680.94;;;7.60;100.00
14120;BME280;7138;49.246;9.100;2023-02-03T13:13:23;99679.63;;;7.74;100.00
14120;BME280;7138;49.246;9.100;2023-02-03T13:15:53;99660.91;;;7.80;100.00
14120;BME280;7138;49.246;9.100;2023-02-03T13:18:26;99632.28;;;7.69;100.00
14120;BME280;7138;49.246;9.100;2023-02-03T13:20:55;99648.78;;;7.76;100.00
14120;BME280;7138;49.246;9.100;2023-02-03T13:23:23;99630.00;;;7.78;100.00
14120;BME280;7138;49.246;9.100;2023-02-03T13:26:15;99628.34;;;7.82;100.00
14120;BME280;7138;49.246;9.100;2023-02-03T13:29:06;99642.97;;;7.83;100.00
14120;BME280;7138;49.246;9.100;2023-02-03T13:31:48;99611.59;;;7.64;100.00
14120;BME280;7138;49.246;9.100;2023-02-03T13:34:53;99636.09;;;7.83;100.00
14120;BME280;7138;49.246;9.100;2023-02-03T13:37:54;99641.03;;;7.76;100.00
14120;BME280;7138;49.246;9.100;2023-02-03T13:40:39;99632.50;;;7.77;100.00
14120;BME280;7138;49.246;9.100;2023-02-03T13:43:15;99661.78;;;7.80;100.00
14120;BME280;7138;49.246;9.100;2023-02-03T13:45:47;99618.75;;;7.76;100.00